createdAt,value
2022-09-17T00:02:14.722Z,73.25
2022-09-17T00:04:44.453Z,73.16
2022-09-17T00:07:13.901Z,73.58
2022-09-17T00:09:44.144Z,72.54
2022-09-17T00:12:13.862Z,72.60
2022-09-17T00:14:43.593Z,72.72
2022-09-17T00:17:13.348Z,73.09
2022-09-17T00:19:42.786Z,72.96
2022-09-17T00:22:13.076Z,72.50
2022-09-17T00:24:42.968Z,72.07
2022-09-17T00:27:12.800Z,72.45
2022-09-17T00:29:42.576Z,73.12
2022-09-17T00:32:12.605Z,73.12
2022-09-17T00:34:43.237Z,72.57
2022-09-17T00:37:13.294Z,72.63
2022-09-17T00:39:43.131Z,72.31
2022-09-17T00:42:17.276Z,72.23
2022-09-17T00:44:52.855Z,72.23
2022-09-17T00:47:25.545Z,72.27
2022-09-17T00:49:58.348Z,72.04
2022-09-17T00:52:31.624Z,72.48
2022-09-17T00:55:10.586Z,72.04
2022-09-17T00:57:42.190Z,72.04
2022-09-17T01:00:15.718Z,71.17
2022-09-17T01:02:45.949Z,71.17
2022-09-17T01:05:16.138Z,71.19
2022-09-17T01:08:00.732Z,71.91
2022-09-17T01:10:49.843Z,72.04
2022-09-17T01:13:22.784Z,72.76
2022-09-17T01:16:10.373Z,73.02
2022-09-17T01:18:55.089Z,73.04
2022-09-17T01:21:53.166Z,72.37
2022-09-17T01:24:31.504Z,73.02
2022-09-17T01:27:19.384Z,72.55
2022-09-17T01:30:06.502Z,72.67
2022-09-17T01:32:47.939Z,73.45
2022-09-17T01:35:20.815Z,73.80
2022-09-17T01:38:18.984Z,73.09
2022-09-17T01:40:57.311Z,73.57
2022-09-17T01:43:32.820Z,73.08
2022-09-17T01:46:20.459Z,73.44
2022-09-17T01:48:53.407Z,73.62
2022-09-17T01:51:26.160Z,73.37
2022-09-17T01:53:59.040Z,74.16
2022-09-17T01:56:34.548Z,74.16
2022-09-17T01:59:13.563Z,73.75
2022-09-17T02:01:45.244Z,74.00
2022-09-17T02:04:20.535Z,73.49
2022-09-17T02:06:53.608Z,73.47
2022-09-17T02:09:26.672Z,72.90
2022-09-17T02:11:59.635Z,72.63
2022-09-17T02:14:32.405Z,73.07
2022-09-17T02:17:07.985Z,72.86
2022-09-17T02:19:39.301Z,72.86
2022-09-17T02:22:18.982Z,72.88
2022-09-17T02:25:13.445Z,72.50
2022-09-17T02:27:57.688Z,72.70
2022-09-17T02:30:27.686Z,72.24
2022-09-17T02:32:57.568Z,73.39
2022-09-17T02:35:27.442Z,73.77
2022-09-17T02:37:57.190Z,73.46
2022-09-17T02:40:30.400Z,73.80
2022-09-17T02:43:37.956Z,73.83
2022-09-17T02:46:30.180Z,73.20
2022-09-17T02:49:11.509Z,73.61
2022-09-17T02:52:12.271Z,73.29
2022-09-17T02:55:23.260Z,73.36
2022-09-17T02:58:10.960Z,73.39
2022-09-17T03:00:41.779Z,73.45
2022-09-17T03:03:17.612Z,73.08
2022-09-17T03:05:48.489Z,72.94
2022-09-17T03:08:20.315Z,72.86
2022-09-17T03:10:50.261Z,72.55
2022-09-17T03:13:19.997Z,72.61
2022-09-17T03:15:49.867Z,72.91
2022-09-17T03:18:19.614Z,73.25
2022-09-17T03:20:49.357Z,73.03
2022-09-17T03:23:19.098Z,73.38
2022-09-17T03:25:49.549Z,72.83
2022-09-17T03:28:19.145Z,73.55
2022-09-17T03:30:48.746Z,73.35
2022-09-17T03:33:18.562Z,73.01
2022-09-17T03:35:48.382Z,73.20
2022-09-17T03:38:18.517Z,73.42
2022-09-17T03:40:53.992Z,73.57
2022-09-17T03:43:23.457Z,73.67
2022-09-17T03:45:53.542Z,73.80
2022-09-17T03:48:23.792Z,72.78
2022-09-17T03:50:53.238Z,73.04
2022-09-17T03:53:22.952Z,73.27
2022-09-17T03:55:52.711Z,73.47
2022-09-17T03:58:22.178Z,73.47
2022-09-17T04:00:56.669Z,73.63
2022-09-17T04:03:28.939Z,73.79
2022-09-17T04:05:58.472Z,73.54
2022-09-17T04:08:27.968Z,72.96
2022-09-17T04:10:57.780Z,73.19
2022-09-17T04:13:27.856Z,73.56
2022-09-17T04:15:57.709Z,73.30
2022-09-17T04:18:27.512Z,73.12
2022-09-17T04:20:57.315Z,73.46
2022-09-17T04:23:27.369Z,73.49
2022-09-17T04:25:57.280Z,73.49
2022-09-17T04:28:26.796Z,73.84
2022-09-17T04:30:57.619Z,73.38
2022-09-17T04:33:27.640Z,73.35
2022-09-17T04:35:57.727Z,73.51
2022-09-17T04:38:27.531Z,73.49
2022-09-17T04:40:57.365Z,74.05
2022-09-17T04:43:27.288Z,74.50
2022-09-17T04:45:57.016Z,74.81
2022-09-17T04:48:26.448Z,74.97
2022-09-17T04:50:55.935Z,75.09
2022-09-17T04:53:26.117Z,74.21
2022-09-17T04:55:55.858Z,73.93
2022-09-17T04:58:25.582Z,73.93
2022-09-17T05:00:55.446Z,73.90
2022-09-17T05:03:25.204Z,73.24
2022-09-17T05:05:54.973Z,73.27
2022-09-17T05:08:25.279Z,73.05
2022-09-17T05:10:55.325Z,73.05
2022-09-17T05:13:25.054Z,73.74
2022-09-17T05:15:59.194Z,72.87
2022-09-17T05:18:29.024Z,72.87
2022-09-17T05:20:58.776Z,73.05
2022-09-17T05:23:29.304Z,72.53
2022-09-17T05:26:02.536Z,72.88
2022-09-17T05:28:32.256Z,72.39
2022-09-17T05:31:02.918Z,72.64
2022-09-17T05:33:33.043Z,72.26
2022-09-17T05:36:03.031Z,72.07
2022-09-17T05:38:32.764Z,72.25
2022-09-17T05:41:07.623Z,71.94
2022-09-17T05:43:37.661Z,71.49
2022-09-17T05:46:08.491Z,71.97
2022-09-17T05:48:38.668Z,71.58
2022-09-17T05:51:08.389Z,71.58
2022-09-17T05:53:38.219Z,71.87
2022-09-17T05:56:09.876Z,71.95
2022-09-17T05:58:39.702Z,71.71
2022-09-17T06:01:11.117Z,71.18
2022-09-17T06:03:40.894Z,70.76
2022-09-17T06:06:11.290Z,71.27
2022-09-17T06:08:41.053Z,71.27
2022-09-17T06:11:11.112Z,71.19
2022-09-17T06:13:42.482Z,71.12
2022-09-17T06:16:12.194Z,70.77
2022-09-17T06:18:41.989Z,70.65
2022-09-17T06:21:12.077Z,71.13
2022-09-17T06:23:43.388Z,70.23
2022-09-17T06:26:13.175Z,70.09
2022-09-17T06:28:43.085Z,69.65
2022-09-17T06:31:15.028Z,69.60
2022-09-17T06:33:44.812Z,68.23
2022-09-17T06:36:14.914Z,68.56
2022-09-17T06:38:44.674Z,68.55
2022-09-17T06:41:14.979Z,68.95
2022-09-17T06:43:45.058Z,68.74
2022-09-17T06:46:15.050Z,67.34
2022-09-17T06:48:44.795Z,67.34
2022-09-17T06:51:14.978Z,67.61
2022-09-17T06:53:44.778Z,67.28
2022-09-17T06:56:14.514Z,66.77
2022-09-17T06:58:44.335Z,66.77
2022-09-17T07:01:15.177Z,65.96
2022-09-17T07:03:45.026Z,65.48
2022-09-17T07:06:14.790Z,65.74
2022-09-17T07:08:44.906Z,64.82
2022-09-17T07:11:19.309Z,64.78
2022-09-17T07:13:49.023Z,64.42
2022-09-17T07:16:19.682Z,63.84
2022-09-17T07:18:49.421Z,63.67
2022-09-17T07:21:19.423Z,63.48
2022-09-17T07:23:49.160Z,63.43
2022-09-17T07:26:18.985Z,62.95
2022-09-17T07:28:48.776Z,62.40
2022-09-17T07:31:18.541Z,63.22
2022-09-17T07:33:48.539Z,62.75
2022-09-17T07:36:18.723Z,61.74
2022-09-17T07:38:48.570Z,61.76
2022-09-17T07:41:19.128Z,61.64
2022-09-17T07:43:48.940Z,61.04
2022-09-17T07:46:20.726Z,60.81
2022-09-17T07:48:51.703Z,60.42
2022-09-17T07:51:24.468Z,59.53
2022-09-17T07:53:55.897Z,58.74
2022-09-17T07:56:26.929Z,57.70
2022-09-17T07:58:57.176Z,57.39
2022-09-17T08:01:27.332Z,55.81
2022-09-17T08:03:57.072Z,56.82
2022-09-17T08:06:30.993Z,57.18
2022-09-17T08:09:01.162Z,57.54
2022-09-17T08:11:56.158Z,57.54
2022-09-17T08:14:04.815Z,57.83
2022-09-17T08:16:34.617Z,57.13
2022-09-17T08:19:04.447Z,57.23
2022-09-17T08:21:34.177Z,56.71
2022-09-17T08:24:04.074Z,57.86
2022-09-17T08:26:33.842Z,57.61
2022-09-17T08:29:03.623Z,57.00
2022-09-17T08:31:33.656Z,57.23
2022-09-17T08:34:05.227Z,56.76
2022-09-17T08:36:34.972Z,57.23
2022-09-17T08:39:04.825Z,56.89
2022-09-17T08:41:37.897Z,56.64
2022-09-17T08:44:22.887Z,57.79
2022-09-17T08:47:01.790Z,57.79
2022-09-17T08:49:34.851Z,56.60
2022-09-17T08:52:41.707Z,56.37
2022-09-17T08:55:17.196Z,56.55
2022-09-17T08:57:55.604Z,55.83
2022-09-17T09:00:26.586Z,55.32
2022-09-17T09:03:08.661Z,54.56
2022-09-17T09:05:56.285Z,52.73
2022-09-17T09:08:37.758Z,52.73
2022-09-17T09:11:10.028Z,53.32
2022-09-17T09:13:45.855Z,52.64
2022-09-17T09:16:18.844Z,55.01
2022-09-17T09:18:51.457Z,54.46
2022-09-17T09:21:39.052Z,54.46
2022-09-17T09:24:25.995Z,54.66
2022-09-17T09:27:13.136Z,53.84
2022-09-17T09:30:02.657Z,52.36
2022-09-17T09:33:06.675Z,50.97
2022-09-17T09:35:39.456Z,51.95
2022-09-17T09:38:16.832Z,51.17
2022-09-17T09:40:49.353Z,53.43
2022-09-17T09:43:22.198Z,60.63
2022-09-17T09:45:57.796Z,63.22
2022-09-17T09:48:38.717Z,63.87
2022-09-17T09:51:13.992Z,64.27
2022-09-17T09:54:02.716Z,63.92
2022-09-17T09:56:41.325Z,61.52
2022-09-17T09:59:13.509Z,60.20
2022-09-17T10:01:45.063Z,58.79
2022-09-17T10:04:23.644Z,58.90
2022-09-17T10:07:05.696Z,58.40
2022-09-17T10:09:37.641Z,59.60
2022-09-17T10:12:14.859Z,58.95
2022-09-17T10:14:47.259Z,58.71
2022-09-17T10:17:23.003Z,57.65
2022-09-17T10:20:11.917Z,56.37
2022-09-17T10:22:48.627Z,55.78
2022-09-17T10:25:36.095Z,55.05
2022-09-17T10:28:11.106Z,54.69
2022-09-17T10:30:43.529Z,54.57
2022-09-17T10:33:18.881Z,54.05
2022-09-17T10:36:06.263Z,52.78
2022-09-17T10:38:41.057Z,51.97
2022-09-17T10:41:13.833Z,51.15
2022-09-17T10:43:43.919Z,50.73
2022-09-17T10:46:27.850Z,49.71
2022-09-17T10:49:11.851Z,52.94
2022-09-17T10:51:42.093Z,56.89
2022-09-17T10:54:17.965Z,60.83
2022-09-17T10:56:50.443Z,60.68
2022-09-17T10:59:39.816Z,61.74
2022-09-17T11:02:26.178Z,60.94
2022-09-17T11:05:01.522Z,60.59
2022-09-17T11:07:46.338Z,59.96
2022-09-17T11:10:24.716Z,59.48
2022-09-17T11:13:08.715Z,58.02
2022-09-17T11:15:52.192Z,57.54
2022-09-17T11:18:33.550Z,56.52
2022-09-17T11:21:21.324Z,55.59
2022-09-17T11:24:22.491Z,53.16
2022-09-17T11:27:10.155Z,54.10
2022-09-17T11:30:11.541Z,52.11
2022-09-17T11:32:52.811Z,50.47
2022-09-17T11:35:25.590Z,49.48
2022-09-17T11:38:00.069Z,49.72
2022-09-17T11:40:47.498Z,51.27
2022-09-17T11:43:37.850Z,50.58
2022-09-17T11:46:12.580Z,49.46
2022-09-17T11:49:08.890Z,48.19
2022-09-17T11:51:44.780Z,47.70
2022-09-17T11:54:25.720Z,46.67
2022-09-17T11:57:16.303Z,45.44
2022-09-17T11:59:51.855Z,44.77
2022-09-17T12:02:56.074Z,44.69
2022-09-17T12:05:31.170Z,44.15
2022-09-17T12:08:03.949Z,44.15
2022-09-17T12:10:36.700Z,44.70
2022-09-17T12:13:12.163Z,45.81
2022-09-17T12:15:48.698Z,48.01
2022-09-17T12:18:34.770Z,49.40
2022-09-17T12:21:08.129Z,54.39
2022-09-17T12:23:43.716Z,60.66
2022-09-17T12:26:24.829Z,61.89
2022-09-17T12:29:03.412Z,63.27
2022-09-17T12:31:58.649Z,62.65
2022-09-17T12:34:34.002Z,60.45
2022-09-17T12:37:24.011Z,59.11
2022-09-17T12:39:56.870Z,56.98
2022-09-17T12:42:48.022Z,54.21
2022-09-17T12:45:32.420Z,54.38
2022-09-17T12:48:36.376Z,53.07
2022-09-17T12:51:19.477Z,52.96
2022-09-17T12:54:07.741Z,52.31
2022-09-17T12:57:10.085Z,52.83
2022-09-17T12:59:42.860Z,50.32
2022-09-17T13:02:18.246Z,49.45
2022-09-17T13:05:01.011Z,51.32
2022-09-17T13:07:37.253Z,51.86
2022-09-17T13:13:09.616Z,49.86
2022-09-17T13:15:54.227Z,48.19
2022-09-17T13:18:41.729Z,47.54
2022-09-17T13:21:16.655Z,47.33
2022-09-17T13:23:49.615Z,47.90
2022-09-17T13:26:21.808Z,47.25
2022-09-17T13:28:53.161Z,50.72
2022-09-17T13:31:44.683Z,48.24
2022-09-17T13:34:24.803Z,48.75
2022-09-17T13:36:56.340Z,49.37
2022-09-17T13:39:46.637Z,49.59
2022-09-17T13:42:35.406Z,49.68
2022-09-17T13:45:15.049Z,49.96
2022-09-17T13:48:06.003Z,49.69
2022-09-17T13:50:44.103Z,49.95
2022-09-17T13:53:21.941Z,51.14
2022-09-17T13:55:54.730Z,52.95
2022-09-17T13:58:30.267Z,52.13
2022-09-17T14:01:08.169Z,50.90
2022-09-17T14:03:48.384Z,51.33
2022-09-17T14:06:26.716Z,50.51
2022-09-17T14:08:57.810Z,50.06
2022-09-17T14:11:30.592Z,48.97
2022-09-17T14:14:06.273Z,49.22
2022-09-17T14:16:47.471Z,48.04
2022-09-17T14:19:23.037Z,48.28
2022-09-17T14:22:04.236Z,46.81
2022-09-17T14:24:39.576Z,47.39
2022-09-17T14:27:12.359Z,46.28
2022-09-17T14:29:59.727Z,46.27
2022-09-17T14:32:33.092Z,47.04
2022-09-17T14:35:06.140Z,48.60
2022-09-17T14:37:36.281Z,48.78
2022-09-17T14:40:14.089Z,47.78
2022-09-17T14:42:45.014Z,46.28
2022-09-17T14:45:20.687Z,48.02
2022-09-17T14:47:50.404Z,48.36
2022-09-17T14:50:22.362Z,47.61
2022-09-17T14:52:54.851Z,47.29
2022-09-17T14:55:26.842Z,46.57
2022-09-17T14:58:00.897Z,46.08
2022-09-17T15:00:33.990Z,46.63
2022-09-17T15:03:03.927Z,46.63
2022-09-17T15:05:42.657Z,47.77
2022-09-17T15:08:21.955Z,47.14
2022-09-17T15:10:54.766Z,46.73
2022-09-17T15:13:30.526Z,45.90
2022-09-17T15:16:11.157Z,45.04
2022-09-17T15:18:46.640Z,45.04
2022-09-17T15:24:35.870Z,44.53
2022-09-17T15:27:18.475Z,44.53
2022-09-17T15:29:51.152Z,44.53
2022-09-17T15:32:20.914Z,44.47
2022-09-17T15:35:17.269Z,44.72
2022-09-17T15:40:29.543Z,44.46
2022-09-17T15:43:20.015Z,44.45
2022-09-17T15:45:49.789Z,43.57
2022-09-17T15:48:38.075Z,42.68
2022-09-17T15:51:11.158Z,42.93
2022-09-17T15:53:42.414Z,41.81
2022-09-17T15:56:17.733Z,42.00
2022-09-17T15:58:50.498Z,41.56
2022-09-17T16:01:23.363Z,41.04
2022-09-17T16:04:04.898Z,41.57
2022-09-17T16:06:37.361Z,41.07
2022-09-17T16:09:10.170Z,41.11
2022-09-17T16:11:41.521Z,41.41
2022-09-17T16:14:11.712Z,41.85
2022-09-17T16:16:41.510Z,41.71
2022-09-17T16:19:11.331Z,42.21
2022-09-17T16:21:41.080Z,41.93
2022-09-17T16:24:11.241Z,41.84
2022-09-17T16:26:41.789Z,41.77
2022-09-17T16:29:17.077Z,42.09
2022-09-17T16:31:46.874Z,43.80
2022-09-17T16:34:16.701Z,44.80
2022-09-17T16:36:46.158Z,45.12
2022-09-17T16:39:16.195Z,46.11
2022-09-17T16:41:45.935Z,46.83
2022-09-17T16:44:15.677Z,46.29
2022-09-17T16:46:45.217Z,46.50
2022-09-17T16:49:16.631Z,47.54
2022-09-17T16:51:46.399Z,47.20
2022-09-17T16:54:16.075Z,48.00
2022-09-17T16:56:45.883Z,48.23
2022-09-17T16:59:15.830Z,48.03
2022-09-17T17:01:45.567Z,48.81
2022-09-17T17:04:14.988Z,48.53
2022-09-17T17:06:44.713Z,48.39
2022-09-17T17:09:14.516Z,48.52
2022-09-17T17:11:44.710Z,48.71
2022-09-17T17:14:15.057Z,48.91
2022-09-17T17:16:45.445Z,48.79
2022-09-17T17:19:15.174Z,48.66
2022-09-17T17:21:47.301Z,48.19
2022-09-17T17:24:16.940Z,48.75
2022-09-17T17:26:48.121Z,48.62
2022-09-17T17:32:05.526Z,51.86
2022-09-17T17:34:35.000Z,53.10
2022-09-17T17:37:04.474Z,53.71
2022-09-17T17:39:34.280Z,53.98
2022-09-17T17:42:06.858Z,55.36
2022-09-17T17:44:36.578Z,56.05
2022-09-17T17:47:06.721Z,58.69
2022-09-17T17:49:36.739Z,59.27
2022-09-17T17:52:08.155Z,60.55
2022-09-17T17:54:37.876Z,61.21
2022-09-17T17:57:07.643Z,60.95
2022-09-17T17:59:37.063Z,61.08
2022-09-17T18:02:10.344Z,62.18
2022-09-17T18:04:40.073Z,61.51
2022-09-17T18:07:09.803Z,62.00
2022-09-17T18:09:39.715Z,62.45
2022-09-17T18:12:11.198Z,63.03
2022-09-17T18:14:40.925Z,63.73
2022-09-17T18:17:10.677Z,63.55
2022-09-17T18:19:40.683Z,63.74
2022-09-17T18:22:11.264Z,64.25
2022-09-17T18:24:41.011Z,64.06
2022-09-17T18:27:10.803Z,63.68
2022-09-17T18:29:40.552Z,63.65
2022-09-17T18:32:11.400Z,63.44
2022-09-17T18:34:42.608Z,63.61
2022-09-17T18:37:12.062Z,64.87
2022-09-17T18:39:58.109Z,67.37
2022-09-17T18:42:13.451Z,67.13
2022-09-17T18:44:43.176Z,68.81
2022-09-17T18:47:12.892Z,69.30
2022-09-17T18:49:42.919Z,69.14
2022-09-17T18:52:12.654Z,69.14
2022-09-17T18:54:42.757Z,70.50
2022-09-17T18:57:13.169Z,70.77
2022-09-17T18:59:43.016Z,70.33
2022-09-17T19:02:13.678Z,70.22
2022-09-17T19:04:43.702Z,70.76
2022-09-17T19:07:13.893Z,70.94
2022-09-17T19:09:43.660Z,70.12
2022-09-17T19:12:13.387Z,71.24
2022-09-17T19:14:43.133Z,71.48
2022-09-17T19:17:12.639Z,71.17
2022-09-17T19:19:42.669Z,71.75
2022-09-17T19:22:12.395Z,71.75
2022-09-17T19:24:42.102Z,71.88
2022-09-17T19:27:11.901Z,71.70
2022-09-17T19:29:41.630Z,71.89
2022-09-17T19:32:11.547Z,72.37
2022-09-17T19:34:42.566Z,72.87
2022-09-17T19:37:12.476Z,73.15
2022-09-17T19:39:42.214Z,72.16
2022-09-17T19:42:12.338Z,71.59
2022-09-17T19:44:42.073Z,72.41
2022-09-17T19:47:11.790Z,72.68
2022-09-17T19:49:41.547Z,72.27
2022-09-17T19:52:11.548Z,72.52
2022-09-17T19:54:41.322Z,72.25
2022-09-17T19:57:11.100Z,72.72
2022-09-17T19:59:40.825Z,72.05
2022-09-17T20:02:14.457Z,72.37
2022-09-17T20:04:44.220Z,72.78
2022-09-17T20:07:13.960Z,73.76
2022-09-17T20:09:44.097Z,72.62
2022-09-17T20:12:13.506Z,73.46
2022-09-17T20:14:43.376Z,73.06
2022-09-17T20:17:13.791Z,73.55
2022-09-17T20:19:43.481Z,74.23
2022-09-17T20:22:13.233Z,73.12
2022-09-17T20:24:45.588Z,73.95
2022-09-17T20:27:14.782Z,73.31
2022-09-17T20:29:44.269Z,72.85
2022-09-17T20:32:14.359Z,73.28
2022-09-17T20:34:44.077Z,73.99
2022-09-17T20:37:14.070Z,73.55
2022-09-17T20:39:44.817Z,73.09
2022-09-17T20:42:14.353Z,74.47
2022-09-17T20:44:44.095Z,73.90
2022-09-17T20:47:14.143Z,73.67
2022-09-17T20:49:43.870Z,73.77
2022-09-17T20:52:16.802Z,74.29
2022-09-17T20:54:45.043Z,74.29
2022-09-17T20:57:14.942Z,74.86
2022-09-17T20:59:55.378Z,75.31
2022-09-17T21:02:25.427Z,76.95
2022-09-17T21:04:55.138Z,76.95
2022-09-17T21:07:24.904Z,75.46
2022-09-17T21:09:54.638Z,76.02
2022-09-17T21:12:27.615Z,75.29
2022-09-17T21:14:56.192Z,74.97
2022-09-17T21:17:25.936Z,74.58
2022-09-17T21:19:55.697Z,74.92
2022-09-17T21:22:25.447Z,75.46
2022-09-17T21:24:55.206Z,75.00
2022-09-17T21:27:24.961Z,76.17
2022-09-17T21:29:54.720Z,75.94
2022-09-17T21:32:24.568Z,76.48
2022-09-17T21:34:54.318Z,74.30
2022-09-17T21:37:27.181Z,74.60
2022-09-17T21:39:56.933Z,75.73
2022-09-17T21:42:26.744Z,75.30
2022-09-17T21:44:56.516Z,74.96
2022-09-17T21:47:26.542Z,74.80
2022-09-17T21:49:56.584Z,75.95
2022-09-17T21:52:26.323Z,75.83
2022-09-17T21:54:56.056Z,75.97
2022-09-17T21:57:25.805Z,76.19
2022-09-17T21:59:55.531Z,77.14
2022-09-17T22:02:27.170Z,76.87
2022-09-17T22:04:56.966Z,76.87
2022-09-17T22:07:26.779Z,76.92
2022-09-17T22:09:56.517Z,76.56
2022-09-17T22:12:26.384Z,76.74
2022-09-17T22:14:56.247Z,78.15
2022-09-17T22:17:26.024Z,78.16
2022-09-17T22:19:55.784Z,77.95
2022-09-17T22:22:25.441Z,77.63
2022-09-17T22:24:55.644Z,78.03
2022-09-17T22:27:25.456Z,78.62
2022-09-17T22:29:55.209Z,77.46
2022-09-17T22:32:24.642Z,77.30
2022-09-17T22:34:54.937Z,76.89
2022-09-17T22:37:24.664Z,77.83
2022-09-17T22:39:54.902Z,77.14
2022-09-17T22:42:24.686Z,77.11
2022-09-17T22:44:54.707Z,77.36
2022-09-17T22:47:24.441Z,77.53
2022-09-17T22:49:54.189Z,76.75
2022-09-17T22:52:24.148Z,77.35
2022-09-17T22:54:53.883Z,77.27
2022-09-17T22:57:23.655Z,77.09
2022-09-17T22:59:53.683Z,78.01
2022-09-17T23:02:23.214Z,76.75
2022-09-17T23:04:52.947Z,75.73
2022-09-17T23:07:22.679Z,76.33
2022-09-17T23:09:52.480Z,76.86
2022-09-17T23:12:21.916Z,76.79
2022-09-17T23:14:52.152Z,75.89
2022-09-17T23:17:24.932Z,76.27
2022-09-17T23:19:53.399Z,76.85
2022-09-17T23:22:23.102Z,77.70
2022-09-17T23:24:52.839Z,77.23
2022-09-17T23:27:22.919Z,77.88
2022-09-17T23:29:52.674Z,78.04
2022-09-17T23:32:22.106Z,77.92
2022-09-17T23:34:53.520Z,77.83
2022-09-17T23:37:23.541Z,77.64
2022-09-17T23:39:53.658Z,77.53
2022-09-17T23:42:23.392Z,77.59
2022-09-17T23:44:53.125Z,77.48
2022-09-17T23:47:22.938Z,76.56
2022-09-17T23:49:53.143Z,76.56
2022-09-17T23:52:23.088Z,76.15
2022-09-17T23:54:56.464Z,76.51
2022-09-17T23:57:25.492Z,76.71
2022-09-17T23:59:55.506Z,78.01
